sensor_id;sensor_type;location;lat;lon;timestamp;P1;durP1;ratioP1;P2;durP2;ratioP2
73172;SDS011;61388;54.962;73.394;2022-07-30T00:00:20;8.85;;;4.97;;
73172;SDS011;61388;54.962;73.394;2022-07-30T00:02:50;9.33;;;5.47;;
73172;SDS011;61388;54.962;73.394;2022-07-30T00:05:16;10.30;;;5.20;;
73172;SDS011;61388;54.962;73.394;2022-07-30T00:07:44;10.65;;;5.22;;
73172;SDS011;61388;54.962;73.394;2022-07-30T00:10:10;12.25;;;5.10;;
73172;SDS011;61388;54.962;73.394;2022-07-30T00:12:36;13.65;;;5.75;;
73172;SDS011;61388;54.962;73.394;2022-07-30T00:15:03;12.57;;;5.40;;
73172;SDS011;61388;54.962;73.394;2022-07-30T00:17:35;13.73;;;5.13;;
73172;SDS011;61388;54.962;73.394;2022-07-30T00:20:01;15.52;;;6.30;;
73172;SDS011;61388;54.962;73.394;2022-07-30T00:22:37;12.68;;;5.57;;
73172;SDS011;61388;54.962;73.394;2022-07-30T00:25:13;9.48;;;5.25;;
73172;SDS011;61388;54.962;73.394;2022-07-30T00:27:39;9.77;;;5.33;;
73172;SDS011;61388;54.962;73.394;2022-07-30T00:30:06;11.93;;;5.80;;
73172;SDS011;61388;54.962;73.394;2022-07-30T00:32:32;9.98;;;5.57;;
73172;SDS011;61388;54.962;73.394;2022-07-30T00:34:58;14.10;;;5.80;;
73172;SDS011;61388;54.962;73.394;2022-07-30T00:37:24;16.42;;;6.35;;
73172;SDS011;61388;54.962;73.394;2022-07-30T00:39:50;13.93;;;6.20;;
73172;SDS011;61388;54.962;73.394;2022-07-30T00:42:16;14.85;;;5.90;;
73172;SDS011;61388;54.962;73.394;2022-07-30T00:44:53;12.88;;;6.63;;
73172;SDS011;61388;54.962;73.394;2022-07-30T00:47:19;13.73;;;6.88;;
73172;SDS011;61388;54.962;73.394;2022-07-30T00:49:45;10.15;;;5.80;;
73172;SDS011;61388;54.962;73.394;2022-07-30T00:52:12;14.93;;;6.17;;
73172;SDS011;61388;54.962;73.394;2022-07-30T00:54:39;11.68;;;6.13;;
73172;SDS011;61388;54.962;73.394;2022-07-30T00:57:05;12.23;;;5.93;;
73172;SDS011;61388;54.962;73.394;2022-07-30T00:59:34;13.07;;;6.20;;
73172;SDS011;61388;54.962;73.394;2022-07-30T01:02:05;13.60;;;6.22;;
73172;SDS011;61388;54.962;73.394;2022-07-30T01:04:31;10.93;;;6.47;;
73172;SDS011;61388;54.962;73.394;2022-07-30T01:06:57;15.70;;;6.43;;
73172;SDS011;61388;54.962;73.394;2022-07-30T01:09:27;12.80;;;6.35;;
73172;SDS011;61388;54.962;73.394;2022-07-30T01:12:03;10.35;;;6.25;;
73172;SDS011;61388;54.962;73.394;2022-07-30T01:14:33;12.38;;;6.35;;
73172;SDS011;61388;54.962;73.394;2022-07-30T01:16:59;13.47;;;6.77;;
73172;SDS011;61388;54.962;73.394;2022-07-30T01:19:27;12.00;;;6.50;;
73172;SDS011;61388;54.962;73.394;2022-07-30T01:22:16;12.55;;;7.25;;
73172;SDS011;61388;54.962;73.394;2022-07-30T01:24:46;15.68;;;7.07;;
73172;SDS011;61388;54.962;73.394;2022-07-30T01:27:21;11.85;;;7.13;;
73172;SDS011;61388;54.962;73.394;2022-07-30T01:29:48;14.50;;;6.87;;
73172;SDS011;61388;54.962;73.394;2022-07-30T01:32:15;14.95;;;7.03;;
73172;SDS011;61388;54.962;73.394;2022-07-30T01:34:42;14.25;;;7.20;;
73172;SDS011;61388;54.962;73.394;2022-07-30T01:37:15;22.58;;;8.00;;
73172;SDS011;61388;54.962;73.394;2022-07-30T01:39:46;15.55;;;7.70;;
73172;SDS011;61388;54.962;73.394;2022-07-30T01:42:13;14.67;;;7.87;;
73172;SDS011;61388;54.962;73.394;2022-07-30T01:44:50;19.80;;;7.78;;
73172;SDS011;61388;54.962;73.394;2022-07-30T01:47:21;19.48;;;8.63;;
73172;SDS011;61388;54.962;73.394;2022-07-30T01:49:49;21.38;;;7.95;;
73172;SDS011;61388;54.962;73.394;2022-07-30T01:52:16;19.65;;;8.65;;
73172;SDS011;61388;54.962;73.394;2022-07-30T01:54:49;13.37;;;7.63;;
73172;SDS011;61388;54.962;73.394;2022-07-30T01:57:16;16.50;;;7.97;;
73172;SDS011;61388;54.962;73.394;2022-07-30T01:59:54;12.95;;;7.50;;
73172;SDS011;61388;54.962;73.394;2022-07-30T02:02:22;17.38;;;7.35;;
73172;SDS011;61388;54.962;73.394;2022-07-30T02:04:48;13.73;;;8.23;;
73172;SDS011;61388;54.962;73.394;2022-07-30T02:10:23;17.35;;;9.48;;
73172;SDS011;61388;54.962;73.394;2022-07-30T02:12:50;37.92;;;33.35;;
73172;SDS011;61388;54.962;73.394;2022-07-30T02:20:16;29.43;;;26.70;;
73172;SDS011;61388;54.962;73.394;2022-07-30T02:22:45;22.67;;;18.15;;
73172;SDS011;61388;54.962;73.394;2022-07-30T02:25:16;35.83;;;32.53;;
73172;SDS011;61388;54.962;73.394;2022-07-30T02:27:43;43.63;;;40.17;;
73172;SDS011;61388;54.962;73.394;2022-07-30T02:30:11;62.40;;;57.92;;
73172;SDS011;61388;54.962;73.394;2022-07-30T02:32:47;20.30;;;15.60;;
73172;SDS011;61388;54.962;73.394;2022-07-30T02:35:15;15.85;;;10.38;;
73172;SDS011;61388;54.962;73.394;2022-07-30T02:37:43;15.13;;;11.15;;
73172;SDS011;61388;54.962;73.394;2022-07-30T02:40:19;14.80;;;11.10;;
73172;SDS011;61388;54.962;73.394;2022-07-30T02:42:46;17.25;;;10.70;;
73172;SDS011;61388;54.962;73.394;2022-07-30T02:45:23;20.93;;;11.90;;
73172;SDS011;61388;54.962;73.394;2022-07-30T02:47:58;20.25;;;11.02;;
73172;SDS011;61388;54.962;73.394;2022-07-30T02:50:26;16.80;;;11.23;;
73172;SDS011;61388;54.962;73.394;2022-07-30T02:52:53;22.80;;;10.32;;
73172;SDS011;61388;54.962;73.394;2022-07-30T02:55:20;17.75;;;10.77;;
73172;SDS011;61388;54.962;73.394;2022-07-30T02:57:48;16.90;;;10.63;;
73172;SDS011;61388;54.962;73.394;2022-07-30T03:00:16;15.32;;;10.50;;
73172;SDS011;61388;54.962;73.394;2022-07-30T03:02:42;13.35;;;10.02;;
73172;SDS011;61388;54.962;73.394;2022-07-30T03:05:09;14.10;;;10.27;;
73172;SDS011;61388;54.962;73.394;2022-07-30T03:07:36;13.95;;;11.07;;
73172;SDS011;61388;54.962;73.394;2022-07-30T03:10:04;15.83;;;10.33;;
73172;SDS011;61388;54.962;73.394;2022-07-30T03:12:31;14.18;;;10.18;;
73172;SDS011;61388;54.962;73.394;2022-07-30T03:14:59;18.92;;;10.52;;
73172;SDS011;61388;54.962;73.394;2022-07-30T03:17:25;16.05;;;10.38;;
73172;SDS011;61388;54.962;73.394;2022-07-30T03:19:54;15.68;;;10.90;;
73172;SDS011;61388;54.962;73.394;2022-07-30T03:22:21;13.40;;;10.60;;
73172;SDS011;61388;54.962;73.394;2022-07-30T03:24:49;15.32;;;11.27;;
73172;SDS011;61388;54.962;73.394;2022-07-30T03:27:17;15.50;;;11.75;;
73172;SDS011;61388;54.962;73.394;2022-07-30T03:29:43;15.45;;;11.18;;
73172;SDS011;61388;54.962;73.394;2022-07-30T03:32:11;15.10;;;10.75;;
73172;SDS011;61388;54.962;73.394;2022-07-30T03:34:37;16.67;;;10.67;;
73172;SDS011;61388;54.962;73.394;2022-07-30T03:37:04;16.73;;;10.57;;
73172;SDS011;61388;54.962;73.394;2022-07-30T03:39:32;20.13;;;12.32;;
73172;SDS011;61388;54.962;73.394;2022-07-30T03:41:59;16.75;;;12.07;;
73172;SDS011;61388;54.962;73.394;2022-07-30T03:44:26;16.58;;;12.23;;
73172;SDS011;61388;54.962;73.394;2022-07-30T03:46:53;16.77;;;12.30;;
73172;SDS011;61388;54.962;73.394;2022-07-30T03:49:31;18.88;;;12.63;;
73172;SDS011;61388;54.962;73.394;2022-07-30T03:51:58;16.08;;;11.00;;
73172;SDS011;61388;54.962;73.394;2022-07-30T03:54:25;18.58;;;12.32;;
73172;SDS011;61388;54.962;73.394;2022-07-30T03:57:13;13.68;;;11.10;;
73172;SDS011;61388;54.962;73.394;2022-07-30T03:59:41;16.53;;;11.77;;
73172;SDS011;61388;54.962;73.394;2022-07-30T04:02:08;22.13;;;11.63;;
73172;SDS011;61388;54.962;73.394;2022-07-30T04:04:56;16.13;;;11.05;;
73172;SDS011;61388;54.962;73.394;2022-07-30T04:07:35;14.90;;;10.77;;
73172;SDS011;61388;54.962;73.394;2022-07-30T04:10:02;16.20;;;11.38;;
73172;SDS011;61388;54.962;73.394;2022-07-30T04:12:57;18.67;;;12.67;;
73172;SDS011;61388;54.962;73.394;2022-07-30T04:15:24;16.58;;;11.63;;
73172;SDS011;61388;54.962;73.394;2022-07-30T04:17:52;15.23;;;12.15;;
73172;SDS011;61388;54.962;73.394;2022-07-30T04:20:29;14.40;;;12.05;;
73172;SDS011;61388;54.962;73.394;2022-07-30T04:22:56;15.38;;;13.77;;
73172;SDS011;61388;54.962;73.394;2022-07-30T04:25:29;15.30;;;13.43;;
73172;SDS011;61388;54.962;73.394;2022-07-30T04:28:05;16.65;;;13.27;;
73172;SDS011;61388;54.962;73.394;2022-07-30T04:30:32;14.77;;;13.23;;
73172;SDS011;61388;54.962;73.394;2022-07-30T04:32:59;17.38;;;13.18;;
73172;SDS011;61388;54.962;73.394;2022-07-30T04:35:42;13.75;;;12.40;;
73172;SDS011;61388;54.962;73.394;2022-07-30T04:38:14;16.87;;;13.20;;
73172;SDS011;61388;54.962;73.394;2022-07-30T04:40:44;16.80;;;12.55;;
73172;SDS011;61388;54.962;73.394;2022-07-30T04:43:10;17.20;;;12.20;;
73172;SDS011;61388;54.962;73.394;2022-07-30T04:45:38;19.95;;;12.45;;
73172;SDS011;61388;54.962;73.394;2022-07-30T04:48:05;17.48;;;12.30;;
73172;SDS011;61388;54.962;73.394;2022-07-30T04:50:54;14.67;;;12.60;;
73172;SDS011;61388;54.962;73.394;2022-07-30T04:53:27;13.75;;;12.32;;
73172;SDS011;61388;54.962;73.394;2022-07-30T04:56:07;23.67;;;17.63;;
73172;SDS011;61388;54.962;73.394;2022-07-30T04:58:34;16.38;;;12.23;;
73172;SDS011;61388;54.962;73.394;2022-07-30T05:01:01;13.50;;;11.82;;
73172;SDS011;61388;54.962;73.394;2022-07-30T05:03:30;15.70;;;12.43;;
73172;SDS011;61388;54.962;73.394;2022-07-30T05:06:00;14.68;;;11.93;;
73172;SDS011;61388;54.962;73.394;2022-07-30T05:08:31;15.80;;;12.70;;
73172;SDS011;61388;54.962;73.394;2022-07-30T05:11:03;17.40;;;12.48;;
73172;SDS011;61388;54.962;73.394;2022-07-30T05:13:40;13.60;;;12.20;;
73172;SDS011;61388;54.962;73.394;2022-07-30T05:16:14;17.03;;;11.97;;
73172;SDS011;61388;54.962;73.394;2022-07-30T05:18:46;15.25;;;11.73;;
73172;SDS011;61388;54.962;73.394;2022-07-30T05:21:17;16.33;;;12.45;;
73172;SDS011;61388;54.962;73.394;2022-07-30T05:23:46;17.95;;;11.32;;
73172;SDS011;61388;54.962;73.394;2022-07-30T05:26:33;13.90;;;11.73;;
73172;SDS011;61388;54.962;73.394;2022-07-30T05:28:59;13.90;;;11.53;;
73172;SDS011;61388;54.962;73.394;2022-07-30T05:31:43;15.48;;;11.30;;
73172;SDS011;61388;54.962;73.394;2022-07-30T05:34:10;12.63;;;11.32;;
73172;SDS011;61388;54.962;73.394;2022-07-30T05:36:42;14.00;;;10.88;;
73172;SDS011;61388;54.962;73.394;2022-07-30T05:39:11;12.73;;;11.43;;
73172;SDS011;61388;54.962;73.394;2022-07-30T05:41:53;16.47;;;11.90;;
73172;SDS011;61388;54.962;73.394;2022-07-30T05:44:46;12.32;;;10.73;;
73172;SDS011;61388;54.962;73.394;2022-07-30T05:47:12;13.02;;;11.60;;
73172;SDS011;61388;54.962;73.394;2022-07-30T05:49:39;13.15;;;11.15;;
73172;SDS011;61388;54.962;73.394;2022-07-30T05:52:12;14.07;;;11.25;;
73172;SDS011;61388;54.962;73.394;2022-07-30T05:54:38;11.90;;;10.20;;
73172;SDS011;61388;54.962;73.394;2022-07-30T05:57:23;13.18;;;10.27;;
73172;SDS011;61388;54.962;73.394;2022-07-30T05:59:49;12.73;;;10.23;;
73172;SDS011;61388;54.962;73.394;2022-07-30T06:02:26;12.60;;;9.82;;
73172;SDS011;61388;54.962;73.394;2022-07-30T06:04:52;15.85;;;12.15;;
73172;SDS011;61388;54.962;73.394;2022-07-30T06:07:24;27.17;;;14.87;;
73172;SDS011;61388;54.962;73.394;2022-07-30T06:09:55;12.23;;;9.45;;
73172;SDS011;61388;54.962;73.394;2022-07-30T06:12:26;13.70;;;9.88;;
73172;SDS011;61388;54.962;73.394;2022-07-30T06:15:03;13.02;;;9.88;;
73172;SDS011;61388;54.962;73.394;2022-07-30T06:17:39;13.40;;;9.90;;
73172;SDS011;61388;54.962;73.394;2022-07-30T06:20:28;14.17;;;9.57;;
73172;SDS011;61388;54.962;73.394;2022-07-30T06:23:11;13.35;;;8.77;;
73172;SDS011;61388;54.962;73.394;2022-07-30T06:25:50;17.50;;;10.63;;
73172;SDS011;61388;54.962;73.394;2022-07-30T06:28:17;12.75;;;9.13;;
73172;SDS011;61388;54.962;73.394;2022-07-30T06:30:46;12.82;;;9.57;;
73172;SDS011;61388;54.962;73.394;2022-07-30T06:33:15;13.30;;;8.53;;
73172;SDS011;61388;54.962;73.394;2022-07-30T06:35:41;14.38;;;9.73;;
73172;SDS011;61388;54.962;73.394;2022-07-30T06:38:11;14.57;;;9.27;;
73172;SDS011;61388;54.962;73.394;2022-07-30T06:40:51;12.63;;;8.73;;
73172;SDS011;61388;54.962;73.394;2022-07-30T06:43:26;11.98;;;8.52;;
73172;SDS011;61388;54.962;73.394;2022-07-30T06:46:18;19.77;;;13.53;;
73172;SDS011;61388;54.962;73.394;2022-07-30T06:48:47;13.45;;;8.95;;
73172;SDS011;61388;54.962;73.394;2022-07-30T06:51:14;10.57;;;8.30;;
73172;SDS011;61388;54.962;73.394;2022-07-30T06:53:41;14.23;;;8.40;;
73172;SDS011;61388;54.962;73.394;2022-07-30T06:56:13;9.85;;;8.52;;
73172;SDS011;61388;54.962;73.394;2022-07-30T06:58:45;13.50;;;8.50;;
73172;SDS011;61388;54.962;73.394;2022-07-30T07:01:40;11.40;;;8.32;;
73172;SDS011;61388;54.962;73.394;2022-07-30T07:04:06;10.18;;;7.97;;
73172;SDS011;61388;54.962;73.394;2022-07-30T07:06:34;20.27;;;8.25;;
73172;SDS011;61388;54.962;73.394;2022-07-30T07:09:04;13.35;;;7.38;;
73172;SDS011;61388;54.962;73.394;2022-07-30T07:11:38;10.20;;;6.57;;
73172;SDS011;61388;54.962;73.394;2022-07-30T07:14:08;9.18;;;5.93;;
73172;SDS011;61388;54.962;73.394;2022-07-30T07:16:35;12.25;;;6.90;;
73172;SDS011;61388;54.962;73.394;2022-07-30T07:19:21;12.02;;;6.78;;
73172;SDS011;61388;54.962;73.394;2022-07-30T07:21:53;16.13;;;7.57;;
73172;SDS011;61388;54.962;73.394;2022-07-30T07:24:19;12.57;;;7.23;;
73172;SDS011;61388;54.962;73.394;2022-07-30T07:27:04;12.93;;;7.65;;
73172;SDS011;61388;54.962;73.394;2022-07-30T07:29:37;10.73;;;8.00;;
73172;SDS011;61388;54.962;73.394;2022-07-30T07:32:03;9.75;;;7.15;;
73172;SDS011;61388;54.962;73.394;2022-07-30T07:34:29;11.60;;;8.05;;
73172;SDS011;61388;54.962;73.394;2022-07-30T07:36:56;11.43;;;7.60;;
73172;SDS011;61388;54.962;73.394;2022-07-30T07:39:22;15.45;;;8.65;;
73172;SDS011;61388;54.962;73.394;2022-07-30T07:41:49;12.23;;;8.13;;
73172;SDS011;61388;54.962;73.394;2022-07-30T07:44:27;12.05;;;7.60;;
73172;SDS011;61388;54.962;73.394;2022-07-30T07:46:54;13.10;;;6.88;;
73172;SDS011;61388;54.962;73.394;2022-07-30T07:49:24;16.43;;;7.40;;
73172;SDS011;61388;54.962;73.394;2022-07-30T07:52:02;10.20;;;7.15;;
73172;SDS011;61388;54.962;73.394;2022-07-30T07:54:28;27.95;;;14.60;;
73172;SDS011;61388;54.962;73.394;2022-07-30T07:56:58;37.75;;;20.92;;
73172;SDS011;61388;54.962;73.394;2022-07-30T07:59:32;15.07;;;7.65;;
73172;SDS011;61388;54.962;73.394;2022-07-30T08:01:58;15.60;;;7.97;;
73172;SDS011;61388;54.962;73.394;2022-07-30T08:05:00;10.00;;;6.30;;
73172;SDS011;61388;54.962;73.394;2022-07-30T08:07:46;12.32;;;7.45;;
73172;SDS011;61388;54.962;73.394;2022-07-30T08:10:31;14.98;;;7.88;;
73172;SDS011;61388;54.962;73.394;2022-07-30T08:13:06;22.30;;;8.95;;
73172;SDS011;61388;54.962;73.394;2022-07-30T08:15:58;10.63;;;7.63;;
73172;SDS011;61388;54.962;73.394;2022-07-30T08:18:44;11.80;;;8.43;;
73172;SDS011;61388;54.962;73.394;2022-07-30T08:21:18;10.25;;;7.70;;
73172;SDS011;61388;54.962;73.394;2022-07-30T08:23:44;14.07;;;8.52;;
73172;SDS011;61388;54.962;73.394;2022-07-30T08:26:10;13.93;;;8.77;;
73172;SDS011;61388;54.962;73.394;2022-07-30T08:28:36;14.43;;;7.93;;
73172;SDS011;61388;54.962;73.394;2022-07-30T08:31:08;11.88;;;8.20;;
73172;SDS011;61388;54.962;73.394;2022-07-30T08:33:34;10.95;;;8.13;;
73172;SDS011;61388;54.962;73.394;2022-07-30T08:36:02;13.48;;;8.82;;
73172;SDS011;61388;54.962;73.394;2022-07-30T08:38:28;12.38;;;8.98;;
73172;SDS011;61388;54.962;73.394;2022-07-30T08:40:54;12.53;;;8.57;;
73172;SDS011;61388;54.962;73.394;2022-07-30T08:43:21;16.25;;;9.25;;
73172;SDS011;61388;54.962;73.394;2022-07-30T08:45:49;16.10;;;8.48;;
73172;SDS011;61388;54.962;73.394;2022-07-30T08:48:43;15.52;;;8.98;;
73172;SDS011;61388;54.962;73.394;2022-07-30T08:51:13;18.80;;;8.77;;
73172;SDS011;61388;54.962;73.394;2022-07-30T08:53:59;13.07;;;9.40;;
73172;SDS011;61388;54.962;73.394;2022-07-30T08:56:26;14.57;;;8.95;;
73172;SDS011;61388;54.962;73.394;2022-07-30T08:58:53;17.55;;;9.02;;
73172;SDS011;61388;54.962;73.394;2022-07-30T09:01:19;14.38;;;9.73;;
73172;SDS011;61388;54.962;73.394;2022-07-30T09:03:46;36.72;;;23.02;;
73172;SDS011;61388;54.962;73.394;2022-07-30T09:06:13;24.20;;;14.60;;
73172;SDS011;61388;54.962;73.394;2022-07-30T09:08:46;12.05;;;8.75;;
73172;SDS011;61388;54.962;73.394;2022-07-30T09:11:22;12.40;;;8.80;;
73172;SDS011;61388;54.962;73.394;2022-07-30T09:13:50;23.48;;;10.15;;
73172;SDS011;61388;54.962;73.394;2022-07-30T09:19:15;14.70;;;8.93;;
73172;SDS011;61388;54.962;73.394;2022-07-30T09:21:53;17.80;;;8.50;;
73172;SDS011;61388;54.962;73.394;2022-07-30T09:24:27;16.02;;;8.25;;
73172;SDS011;61388;54.962;73.394;2022-07-30T09:27:14;24.98;;;8.60;;
73172;SDS011;61388;54.962;73.394;2022-07-30T09:29:59;12.35;;;7.45;;
73172;SDS011;61388;54.962;73.394;2022-07-30T09:35:32;12.20;;;7.50;;
73172;SDS011;61388;54.962;73.394;2022-07-30T09:41:32;9.73;;;6.40;;
73172;SDS011;61388;54.962;73.394;2022-07-30T09:55:45;14.02;;;5.30;;
73172;SDS011;61388;54.962;73.394;2022-07-30T10:15:20;11.05;;;4.38;;
73172;SDS011;61388;54.962;73.394;2022-07-30T10:18:59;8.02;;;3.92;;
73172;SDS011;61388;54.962;73.394;2022-07-30T10:21:44;26.25;;;12.50;;
73172;SDS011;61388;54.962;73.394;2022-07-30T10:24:35;8.50;;;4.03;;
73172;SDS011;61388;54.962;73.394;2022-07-30T10:27:24;11.18;;;4.70;;
73172;SDS011;61388;54.962;73.394;2022-07-30T10:33:43;10.30;;;4.57;;
73172;SDS011;61388;54.962;73.394;2022-07-30T10:36:10;10.02;;;3.90;;
73172;SDS011;61388;54.962;73.394;2022-07-30T10:38:37;6.37;;;4.27;;
73172;SDS011;61388;54.962;73.394;2022-07-30T10:43:35;8.10;;;4.30;;
73172;SDS011;61388;54.962;73.394;2022-07-30T10:46:15;15.68;;;8.80;;
73172;SDS011;61388;54.962;73.394;2022-07-30T10:48:45;8.23;;;4.28;;
73172;SDS011;61388;54.962;73.394;2022-07-30T10:51:11;8.00;;;3.90;;
73172;SDS011;61388;54.962;73.394;2022-07-30T10:53:39;10.85;;;4.10;;
73172;SDS011;61388;54.962;73.394;2022-07-30T11:06:44;6.93;;;3.97;;
73172;SDS011;61388;54.962;73.394;2022-07-30T11:12:06;10.18;;;5.15;;
73172;SDS011;61388;54.962;73.394;2022-07-30T11:17:13;9.65;;;4.20;;
73172;SDS011;61388;54.962;73.394;2022-07-30T11:22:39;9.40;;;4.28;;
73172;SDS011;61388;54.962;73.394;2022-07-30T11:27:52;10.95;;;3.55;;
73172;SDS011;61388;54.962;73.394;2022-07-30T11:32:53;8.93;;;4.38;;
73172;SDS011;61388;54.962;73.394;2022-07-30T11:35:23;12.07;;;5.00;;
73172;SDS011;61388;54.962;73.394;2022-07-30T11:38:00;8.73;;;4.13;;
73172;SDS011;61388;54.962;73.394;2022-07-30T11:40:31;8.38;;;4.10;;
73172;SDS011;61388;54.962;73.394;2022-07-30T11:45:46;8.15;;;4.28;;
73172;SDS011;61388;54.962;73.394;2022-07-30T11:48:13;7.53;;;3.90;;
73172;SDS011;61388;54.962;73.394;2022-07-30T11:50:40;7.35;;;3.90;;
73172;SDS011;61388;54.962;73.394;2022-07-30T11:53:07;7.90;;;4.25;;
73172;SDS011;61388;54.962;73.394;2022-07-30T11:55:41;8.77;;;4.50;;
73172;SDS011;61388;54.962;73.394;2022-07-30T11:58:22;10.68;;;4.03;;
73172;SDS011;61388;54.962;73.394;2022-07-30T12:00:54;8.68;;;4.05;;
73172;SDS011;61388;54.962;73.394;2022-07-30T12:03:22;12.65;;;4.07;;
73172;SDS011;61388;54.962;73.394;2022-07-30T12:05:49;7.25;;;3.88;;
73172;SDS011;61388;54.962;73.394;2022-07-30T12:08:20;7.18;;;3.63;;
73172;SDS011;61388;54.962;73.394;2022-07-30T12:10:58;9.50;;;3.92;;
73172;SDS011;61388;54.962;73.394;2022-07-30T12:13:24;11.05;;;3.92;;
73172;SDS011;61388;54.962;73.394;2022-07-30T12:15:51;31.27;;;11.20;;
73172;SDS011;61388;54.962;73.394;2022-07-30T12:18:27;7.05;;;4.32;;
73172;SDS011;61388;54.962;73.394;2022-07-30T12:21:00;7.65;;;4.20;;
73172;SDS011;61388;54.962;73.394;2022-07-30T12:23:26;8.43;;;3.90;;
73172;SDS011;61388;54.962;73.394;2022-07-30T12:25:52;8.13;;;3.80;;
73172;SDS011;61388;54.962;73.394;2022-07-30T12:28:23;7.68;;;3.53;;
73172;SDS011;61388;54.962;73.394;2022-07-30T12:30:55;7.32;;;3.70;;
73172;SDS011;61388;54.962;73.394;2022-07-30T12:33:26;7.93;;;3.65;;
73172;SDS011;61388;54.962;73.394;2022-07-30T12:38:25;11.50;;;3.92;;
73172;SDS011;61388;54.962;73.394;2022-07-30T12:41:00;7.35;;;4.47;;
73172;SDS011;61388;54.962;73.394;2022-07-30T12:46:21;8.32;;;4.07;;
73172;SDS011;61388;54.962;73.394;2022-07-30T12:48:56;11.85;;;5.07;;
73172;SDS011;61388;54.962;73.394;2022-07-30T12:51:33;9.18;;;4.90;;
73172;SDS011;61388;54.962;73.394;2022-07-30T12:54:00;9.77;;;4.32;;
73172;SDS011;61388;54.962;73.394;2022-07-30T12:56:28;11.20;;;5.13;;
73172;SDS011;61388;54.962;73.394;2022-07-30T12:59:18;16.42;;;5.20;;
73172;SDS011;61388;54.962;73.394;2022-07-30T13:01:55;10.75;;;5.10;;
73172;SDS011;61388;54.962;73.394;2022-07-30T13:04:28;9.85;;;4.63;;
73172;SDS011;61388;54.962;73.394;2022-07-30T13:07:04;10.98;;;4.47;;
73172;SDS011;61388;54.962;73.394;2022-07-30T13:09:30;10.10;;;4.43;;
73172;SDS011;61388;54.962;73.394;2022-07-30T13:11:57;8.80;;;4.55;;
73172;SDS011;61388;54.962;73.394;2022-07-30T13:14:23;9.20;;;5.47;;
73172;SDS011;61388;54.962;73.394;2022-07-30T13:16:49;9.65;;;4.85;;
73172;SDS011;61388;54.962;73.394;2022-07-30T13:19:15;8.55;;;4.80;;
73172;SDS011;61388;54.962;73.394;2022-07-30T13:21:41;9.13;;;5.30;;
73172;SDS011;61388;54.962;73.394;2022-07-30T13:24:10;10.63;;;5.20;;
73172;SDS011;61388;54.962;73.394;2022-07-30T13:29:28;12.80;;;5.50;;
73172;SDS011;61388;54.962;73.394;2022-07-30T13:31:54;11.00;;;5.53;;
73172;SDS011;61388;54.962;73.394;2022-07-30T13:34:20;12.57;;;5.37;;
73172;SDS011;61388;54.962;73.394;2022-07-30T13:36:46;11.48;;;5.18;;
73172;SDS011;61388;54.962;73.394;2022-07-30T13:39:12;10.60;;;5.07;;
73172;SDS011;61388;54.962;73.394;2022-07-30T13:41:38;9.02;;;5.93;;
73172;SDS011;61388;54.962;73.394;2022-07-30T13:44:06;12.97;;;6.83;;
73172;SDS011;61388;54.962;73.394;2022-07-30T13:46:32;12.25;;;5.50;;
73172;SDS011;61388;54.962;73.394;2022-07-30T13:48:58;14.80;;;5.70;;
73172;SDS011;61388;54.962;73.394;2022-07-30T13:51:24;11.00;;;5.53;;
73172;SDS011;61388;54.962;73.394;2022-07-30T13:53:50;10.57;;;5.35;;
73172;SDS011;61388;54.962;73.394;2022-07-30T13:56:17;12.33;;;5.57;;
73172;SDS011;61388;54.962;73.394;2022-07-30T13:58:43;11.80;;;5.70;;
73172;SDS011;61388;54.962;73.394;2022-07-30T14:01:09;10.63;;;6.88;;
73172;SDS011;61388;54.962;73.394;2022-07-30T14:03:35;11.82;;;6.05;;
73172;SDS011;61388;54.962;73.394;2022-07-30T14:06:07;13.75;;;6.55;;
73172;SDS011;61388;54.962;73.394;2022-07-30T14:08:33;13.93;;;5.88;;
73172;SDS011;61388;54.962;73.394;2022-07-30T14:10:59;13.98;;;6.95;;
73172;SDS011;61388;54.962;73.394;2022-07-30T14:13:29;11.65;;;6.05;;
73172;SDS011;61388;54.962;73.394;2022-07-30T14:15:55;16.35;;;7.72;;
73172;SDS011;61388;54.962;73.394;2022-07-30T14:18:34;15.43;;;6.70;;
73172;SDS011;61388;54.962;73.394;2022-07-30T14:21:00;21.40;;;10.10;;
73172;SDS011;61388;54.962;73.394;2022-07-30T14:23:27;16.25;;;7.00;;
73172;SDS011;61388;54.962;73.394;2022-07-30T14:25:53;12.13;;;6.97;;
73172;SDS011;61388;54.962;73.394;2022-07-30T14:28:19;22.58;;;6.80;;
73172;SDS011;61388;54.962;73.394;2022-07-30T14:30:45;13.90;;;6.80;;
73172;SDS011;61388;54.962;73.394;2022-07-30T14:33:19;14.60;;;7.38;;
73172;SDS011;61388;54.962;73.394;2022-07-30T14:35:46;13.98;;;7.32;;
73172;SDS011;61388;54.962;73.394;2022-07-30T14:38:12;14.38;;;7.15;;
73172;SDS011;61388;54.962;73.394;2022-07-30T14:40:38;13.02;;;7.57;;
73172;SDS011;61388;54.962;73.394;2022-07-30T14:43:04;15.52;;;7.40;;
73172;SDS011;61388;54.962;73.394;2022-07-30T14:45:30;11.48;;;6.90;;
73172;SDS011;61388;54.962;73.394;2022-07-30T14:47:58;16.38;;;7.30;;
73172;SDS011;61388;54.962;73.394;2022-07-30T14:50:29;31.20;;;16.40;;
73172;SDS011;61388;54.962;73.394;2022-07-30T14:52:56;13.93;;;7.55;;
73172;SDS011;61388;54.962;73.394;2022-07-30T14:55:22;18.77;;;8.05;;
73172;SDS011;61388;54.962;73.394;2022-07-30T14:57:48;24.00;;;7.20;;
73172;SDS011;61388;54.962;73.394;2022-07-30T15:00:14;15.65;;;7.45;;
73172;SDS011;61388;54.962;73.394;2022-07-30T15:02:50;19.38;;;8.63;;
73172;SDS011;61388;54.962;73.394;2022-07-30T15:05:16;13.40;;;8.38;;
73172;SDS011;61388;54.962;73.394;2022-07-30T15:07:42;18.90;;;9.20;;
73172;SDS011;61388;54.962;73.394;2022-07-30T15:10:08;42.53;;;24.25;;
73172;SDS011;61388;54.962;73.394;2022-07-30T15:12:34;20.75;;;10.13;;
73172;SDS011;61388;54.962;73.394;2022-07-30T15:15:06;17.38;;;8.45;;
73172;SDS011;61388;54.962;73.394;2022-07-30T15:17:33;23.30;;;8.88;;
73172;SDS011;61388;54.962;73.394;2022-07-30T15:20:08;25.15;;;9.27;;
73172;SDS011;61388;54.962;73.394;2022-07-30T15:22:35;20.60;;;10.95;;
73172;SDS011;61388;54.962;73.394;2022-07-30T15:25:11;19.92;;;10.18;;
73172;SDS011;61388;54.962;73.394;2022-07-30T15:27:37;19.90;;;10.02;;
73172;SDS011;61388;54.962;73.394;2022-07-30T15:30:05;19.65;;;10.82;;
73172;SDS011;61388;54.962;73.394;2022-07-30T15:32:31;20.05;;;10.27;;
73172;SDS011;61388;54.962;73.394;2022-07-30T15:35:07;20.08;;;10.98;;
73172;SDS011;61388;54.962;73.394;2022-07-30T15:37:34;20.20;;;11.30;;
73172;SDS011;61388;54.962;73.394;2022-07-30T15:40:00;23.50;;;12.52;;
73172;SDS011;61388;54.962;73.394;2022-07-30T15:42:26;21.67;;;11.43;;
73172;SDS011;61388;54.962;73.394;2022-07-30T15:44:53;25.30;;;11.82;;
73172;SDS011;61388;54.962;73.394;2022-07-30T15:47:19;23.85;;;12.15;;
73172;SDS011;61388;54.962;73.394;2022-07-30T15:49:46;23.27;;;12.35;;
73172;SDS011;61388;54.962;73.394;2022-07-30T15:52:12;25.45;;;11.63;;
73172;SDS011;61388;54.962;73.394;2022-07-30T15:54:38;25.65;;;12.13;;
73172;SDS011;61388;54.962;73.394;2022-07-30T15:57:08;25.23;;;11.73;;
73172;SDS011;61388;54.962;73.394;2022-07-30T15:59:34;24.20;;;11.05;;
73172;SDS011;61388;54.962;73.394;2022-07-30T16:02:00;19.63;;;11.00;;
73172;SDS011;61388;54.962;73.394;2022-07-30T16:04:26;22.08;;;10.82;;
73172;SDS011;61388;54.962;73.394;2022-07-30T16:06:59;23.20;;;10.20;;